Lefor, ND (58641)

11:22 AM MST on February 08, 2016 (GMT -0700)
Dickinson Municipal | | Change Station
CLOSE
Current Station
Airport
Location: Dickinson,
Elevation: 2592 ft
Nearby Weather Stations

Elev 2592 ft 46.80 °N, 102.80 °W | Updated 26 minutes ago

Partly Cloudy
Partly Cloudy
31 °F
Feels Like 18 °F
N
21
Wind Variable Wind from WNW
Gusts 29 mph

Today
High -- | Low -- °F
--% Chance of Precip.
Yesterday
High -- | Low -- °F
Precip. -- in
Pressure 30.38 in
Visibility 10.0 miles
Clouds Clear
Windchill 18 °F
Dew Point 14 °F
Humidity 50%
Rainfall 0.00 in
Snow Depth Not available.
7:06 AM 5:04 PM
New Moon, 0% visible
METAR KDIK 081756Z AUTO 30018G25KT 10SM CLR M01/M10 A3027 RMK AO2 PK WND 29026/1750 SLP285 T10061100 10000 21078 58004
Pressure 30.38 in
Visibility 10.0 miles
Clouds Clear
Windchill 18 °F
Dew Point 14 °F
Humidity 50%
Rainfall 0.00 in
Snow Depth Not available.
7:06 AM 5:04 PM
New Moon, 0% visible
METAR KDIK 081756Z AUTO 30018G25KT 10SM CLR M01/M10 A3027 RMK AO2 PK WND 29026/1750 SLP285 T10061100 10000 21078 58004

10-Day Weather Forecast

Almanac

Astronomy

Feb. 08, 2016 Rise Set
Actual Time
Civil Twilight
Nautical Twilight
Astronomical Twilight
Moon
Length of Visible Light
Length of Day
Tomorrow will be .
, % of the Moon is Illuminated

Today's Extremes

State Highs State Lows

Community

WunderPhotos

Upload Photos

1,891,476 photos uploaded!

WunderBlog® & News

Nearby

Air Quality

  Air Quality AQ Index Pollutant
Not available.

Snow Depth

Station Depth Elevation

Earthquake Activity

City Distance Mag. Time & Date
Minimum magnitude displayed is 2.5.

Coastal Water Temperatures

Place Temperature

Stations

Nearby Weather Stations

Station Location Temp. Windchill Dew Point Humidity Wind Precip. Elev Updated Type
                   

Watches & Warnings

There are currently no watches in effect.